Aviation Digital Data Service (ADDS)

Output produced by METARs form (0634 UTC 27 March 2017)
found at http://www.aviationweather.gov/adds/metars/
 
TAF EGYP 270431Z 2706/2724 06015KT 9999 BKN010 
     TEMPO 2706/2711 2000 BR BKN002 
     PROB40 
     TEMPO 2706/2710 0500 -DZ FG BKN000 
     BECMG 2710/2713 03020G30KT 520003 
     TEMPO 2712/2715 FEW015 
     TEMPO 2715/2724 6000 -RA 
     PROB40 
     TEMPO 2716/2724 3000 RADZ BKN004 
     PROB30 
     TEMPO 2716/2724 VRB07KT 560003